Time;durP1;ratioP1;P1;durP2;ratioP2;P2;SDS_P1;SDS_P2;PMS_P1;PMS_P2;Temp;Humidity;BMP_temperature;BMP_pressure;BME280_temperature;BME280_humidity;BME280_pressure;Samples;Min_cycle;Max_cycle;Signal;HPM_P1;HPM_P2
2019/07/18 00:02:01;;;;;;;3.88;3.47;;;;;;;21.43;53.62;100196.22;;;;-53
2019/07/18 00:05:01;;;;;;;4.00;3.65;;;;;;;21.43;53.67;100195.21;;;;-53
2019/07/18 00:08:01;;;;;;;4.51;3.59;;;;;;;21.43;53.63;100195.48;;;;-53
2019/07/18 00:11:01;;;;;;;4.09;3.26;;;;;;;21.43;53.61;100199.52;;;;-53
2019/07/18 00:14:01;;;;;;;4.35;3.55;;;;;;;21.43;53.64;100206.91;;;;-54
2019/07/18 00:17:01;;;;;;;4.09;3.60;;;;;;;21.42;53.64;100204.28;;;;-54
2019/07/18 00:20:01;;;;;;;3.63;3.33;;;;;;;21.42;53.63;100205.36;;;;-53
2019/07/18 00:23:01;;;;;;;3.98;3.49;;;;;;;21.42;53.64;100204.95;;;;-53
2019/07/18 00:26:01;;;;;;;4.05;3.49;;;;;;;21.42;53.61;100203.31;;;;-53
2019/07/18 00:29:01;;;;;;;3.73;3.43;;;;;;;21.42;53.62;100204.25;;;;-53
2019/07/18 00:32:01;;;;;;;4.55;3.48;;;;;;;21.41;53.58;100199.95;;;;-53
2019/07/18 00:35:01;;;;;;;4.18;3.50;;;;;;;21.41;53.62;100196.99;;;;-53
2019/07/18 00:38:01;;;;;;;4.68;3.51;;;;;;;21.41;53.61;100197.44;;;;-52
2019/07/18 00:41:01;;;;;;;3.73;3.43;;;;;;;21.40;53.60;100197.56;;;;-53
2019/07/18 00:44:01;;;;;;;4.02;3.67;;;;;;;21.40;53.58;100199.25;;;;-53
2019/07/18 00:47:01;;;;;;;4.20;3.53;;;;;;;21.40;53.61;100201.94;;;;-54
2019/07/18 00:50:01;;;;;;;3.90;3.57;;;;;;;21.40;53.62;100201.20;;;;-53
2019/07/18 00:53:01;;;;;;;4.11;3.65;;;;;;;21.41;53.61;100201.59;;;;-52
2019/07/18 00:56:01;;;;;;;3.91;3.36;;;;;;;21.39;53.58;100202.17;;;;-53
2019/07/18 00:59:01;;;;;;;3.81;3.31;;;;;;;21.39;53.57;100195.35;;;;-53
2019/07/18 01:02:01;;;;;;;3.73;3.43;;;;;;;21.39;53.60;100191.55;;;;-53
2019/07/18 01:05:01;;;;;;;3.75;3.45;;;;;;;21.39;53.57;100195.63;;;;-53
2019/07/18 01:08:01;;;;;;;3.97;3.61;;;;;;;21.38;53.55;100189.54;;;;-53
2019/07/18 01:11:01;;;;;;;4.01;3.64;;;;;;;21.38;53.58;100186.08;;;;-53
2019/07/18 01:14:01;;;;;;;3.95;3.63;;;;;;;21.39;53.51;100182.98;;;;-53
2019/07/18 01:17:01;;;;;;;3.79;3.49;;;;;;;21.37;53.53;100182.62;;;;-53
2019/07/18 01:20:01;;;;;;;3.83;3.47;;;;;;;21.38;53.53;100185.48;;;;-53
2019/07/18 01:23:01;;;;;;;3.91;3.53;;;;;;;21.38;53.52;100182.38;;;;-53
2019/07/18 01:26:01;;;;;;;3.96;3.66;;;;;;;21.38;53.49;100179.83;;;;-53
2019/07/18 01:29:01;;;;;;;4.14;3.70;;;;;;;21.38;53.52;100180.44;;;;-53
2019/07/18 01:32:01;;;;;;;3.91;3.61;;;;;;;21.36;53.50;100174.52;;;;-53
2019/07/18 01:35:01;;;;;;;3.93;3.63;;;;;;;21.36;53.51;100172.00;;;;-53
2019/07/18 01:38:01;;;;;;;4.02;3.69;;;;;;;21.36;53.50;100171.33;;;;-53
2019/07/18 01:41:01;;;;;;;3.75;3.45;;;;;;;21.36;53.46;100174.22;;;;-53
2019/07/18 01:44:01;;;;;;;4.07;3.69;;;;;;;21.36;53.51;100172.37;;;;-53
2019/07/18 01:47:01;;;;;;;3.83;3.53;;;;;;;21.35;53.51;100169.09;;;;-53
2019/07/18 01:50:01;;;;;;;3.87;3.52;;;;;;;21.35;53.50;100166.59;;;;-53
2019/07/18 01:53:01;;;;;;;3.99;3.69;;;;;;;21.36;53.52;100163.98;;;;-52
2019/07/18 01:56:01;;;;;;;3.97;3.67;;;;;;;21.36;53.51;100166.16;;;;-53
2019/07/18 01:59:01;;;;;;;4.48;3.57;;;;;;;21.35;53.49;100168.17;;;;-53
2019/07/18 02:02:01;;;;;;;4.05;3.73;;;;;;;21.34;53.47;100166.06;;;;-53
2019/07/18 02:05:01;;;;;;;3.90;3.60;;;;;;;21.33;53.55;100162.67;;;;-53
2019/07/18 02:08:01;;;;;;;3.87;3.50;;;;;;;21.34;53.52;100161.42;;;;-53
2019/07/18 02:11:01;;;;;;;4.03;3.63;;;;;;;21.33;53.52;100160.98;;;;-53
2019/07/18 02:14:01;;;;;;;4.03;3.63;;;;;;;21.32;53.50;100156.09;;;;-53
2019/07/18 02:17:01;;;;;;;3.91;3.56;;;;;;;21.33;53.52;100156.28;;;;-54
2019/07/18 02:20:01;;;;;;;4.23;3.85;;;;;;;21.33;53.49;100156.76;;;;-53
2019/07/18 02:23:01;;;;;;;3.91;3.61;;;;;;;21.32;53.51;100154.64;;;;-53
2019/07/18 02:26:01;;;;;;;3.89;3.59;;;;;;;21.32;53.46;100152.39;;;;-53
2019/07/18 02:29:01;;;;;;;4.07;3.67;;;;;;;21.31;53.50;100153.20;;;;-53
2019/07/18 02:32:01;;;;;;;4.17;3.79;;;;;;;21.32;53.49;100153.80;;;;-53
2019/07/18 02:35:01;;;;;;;4.09;3.68;;;;;;;21.32;53.44;100149.61;;;;-53
2019/07/18 02:38:01;;;;;;;3.86;3.56;;;;;;;21.32;53.45;100149.44;;;;-53
2019/07/18 02:41:01;;;;;;;4.20;3.80;;;;;;;21.31;53.38;100150.17;;;;-53
2019/07/18 02:44:01;;;;;;;4.23;3.83;;;;;;;21.31;53.46;100146.05;;;;-52
2019/07/18 02:47:01;;;;;;;3.89;3.59;;;;;;;21.31;53.42;100147.55;;;;-52
2019/07/18 02:50:01;;;;;;;4.37;3.97;;;;;;;21.31;53.46;100151.82;;;;-53
2019/07/18 02:53:01;;;;;;;3.91;3.58;;;;;;;21.31;53.43;100149.13;;;;-53
2019/07/18 02:56:01;;;;;;;4.09;3.70;;;;;;;21.31;53.44;100148.73;;;;-53
2019/07/18 02:59:01;;;;;;;4.41;4.01;;;;;;;21.30;53.46;100147.62;;;;-52
2019/07/18 03:02:01;;;;;;;4.23;3.76;;;;;;;21.31;53.46;100152.09;;;;-53
2019/07/18 03:05:01;;;;;;;3.99;3.67;;;;;;;21.30;53.47;100152.39;;;;-53
2019/07/18 03:08:01;;;;;;;4.33;3.92;;;;;;;21.30;53.42;100154.52;;;;-53
2019/07/18 03:11:01;;;;;;;3.93;3.59;;;;;;;21.30;53.44;100154.14;;;;-53
2019/07/18 03:14:01;;;;;;;4.09;3.75;;;;;;;21.29;53.46;100152.80;;;;-53
2019/07/18 03:17:01;;;;;;;3.93;3.61;;;;;;;21.29;53.37;100150.95;;;;-53
2019/07/18 03:20:01;;;;;;;4.25;3.89;;;;;;;21.29;53.40;100147.92;;;;-53
2019/07/18 03:23:01;;;;;;;4.10;3.70;;;;;;;21.29;53.41;100149.84;;;;-52
2019/07/18 03:26:01;;;;;;;3.90;3.60;;;;;;;21.29;53.43;100152.97;;;;-53
2019/07/18 03:29:01;;;;;;;3.93;3.63;;;;;;;21.29;53.40;100152.09;;;;-52
2019/07/18 03:32:01;;;;;;;4.05;3.75;;;;;;;21.29;53.42;100156.39;;;;-54
2019/07/18 03:35:01;;;;;;;4.23;3.85;;;;;;;21.29;53.45;100154.88;;;;-53
2019/07/18 03:38:01;;;;;;;4.08;3.78;;;;;;;21.29;53.42;100155.28;;;;-52
2019/07/18 03:41:01;;;;;;;4.02;3.69;;;;;;;21.28;53.37;100155.63;;;;-53
2019/07/18 03:44:01;;;;;;;4.11;3.75;;;;;;;21.29;53.43;100158.48;;;;-53
2019/07/18 03:47:01;;;;;;;4.11;3.81;;;;;;;21.28;53.37;100156.97;;;;-52
2019/07/18 03:50:01;;;;;;;3.97;3.67;;;;;;;21.28;53.43;100157.53;;;;-53
2019/07/18 03:53:01;;;;;;;4.13;3.76;;;;;;;21.28;53.41;100159.22;;;;-53
2019/07/18 03:56:01;;;;;;;4.19;3.75;;;;;;;21.27;52.82;100162.71;;;;-53
2019/07/18 03:59:01;;;;;;;10.94;9.79;;;;;;;20.47;52.02;100162.30;;;;-55
2019/07/18 04:02:01;;;;;;;11.05;9.84;;;;;;;20.18;52.61;100159.00;;;;-53
2019/07/18 04:05:01;;;;;;;11.04;9.90;;;;;;;19.97;53.57;100164.56;;;;-54
2019/07/18 04:08:01;;;;;;;10.80;9.75;;;;;;;19.88;53.97;100164.08;;;;-54
2019/07/18 04:11:01;;;;;;;11.27;10.14;;;;;;;19.68;54.71;100161.70;;;;-54
2019/07/18 04:14:01;;;;;;;10.91;9.83;;;;;;;19.62;54.98;100160.16;;;;-53
2019/07/18 04:17:01;;;;;;;11.31;9.91;;;;;;;19.54;55.29;100162.70;;;;-53
2019/07/18 04:20:01;;;;;;;11.63;10.18;;;;;;;19.50;55.39;100159.12;;;;-54
2019/07/18 04:23:01;;;;;;;12.93;10.33;;;;;;;19.44;55.67;100159.22;;;;-54
2019/07/18 04:26:01;;;;;;;11.98;10.63;;;;;;;19.34;56.07;100160.42;;;;-54
2019/07/18 04:29:01;;;;;;;11.31;10.19;;;;;;;19.32;56.02;100160.61;;;;-54
2019/07/18 04:32:01;;;;;;;11.33;10.09;;;;;;;19.28;56.13;100159.34;;;;-53
2019/07/18 04:35:01;;;;;;;11.66;10.39;;;;;;;19.25;56.16;100156.38;;;;-53
2019/07/18 04:38:01;;;;;;;11.47;10.33;;;;;;;19.23;56.45;100150.70;;;;-54
2019/07/18 04:41:01;;;;;;;11.54;10.35;;;;;;;19.22;56.70;100150.84;;;;-55
2019/07/18 04:44:01;;;;;;;17.34;10.47;;;;;;;19.20;56.80;100147.23;;;;-55
2019/07/18 04:47:01;;;;;;;12.07;10.78;;;;;;;19.20;56.92;100151.16;;;;-54
2019/07/18 04:50:01;;;;;;;13.42;10.59;;;;;;;19.17;57.11;100150.06;;;;-54
2019/07/18 04:53:01;;;;;;;11.86;10.37;;;;;;;19.04;57.41;100152.23;;;;-53
2019/07/18 04:56:01;;;;;;;12.25;10.39;;;;;;;18.95;57.74;100149.22;;;;-53
2019/07/18 04:59:01;;;;;;;11.98;10.21;;;;;;;18.94;57.89;100148.74;;;;-54
2019/07/18 05:02:01;;;;;;;11.37;10.11;;;;;;;18.97;57.86;100147.43;;;;-53
2019/07/18 05:05:01;;;;;;;11.41;10.16;;;;;;;18.93;58.18;100147.97;;;;-54
2019/07/18 05:08:01;;;;;;;12.56;10.37;;;;;;;18.92;58.12;100148.83;;;;-53
2019/07/18 05:11:01;;;;;;;12.41;9.87;;;;;;;18.95;58.31;100153.81;;;;-54
2019/07/18 05:14:01;;;;;;;11.97;10.24;;;;;;;19.02;58.16;100158.17;;;;-54
2019/07/18 05:17:01;;;;;;;12.92;10.35;;;;;;;19.15;57.75;100164.00;;;;-51
2019/07/18 05:20:01;;;;;;;13.53;10.45;;;;;;;19.21;57.84;100171.22;;;;-50
2019/07/18 05:23:01;;;;;;;12.33;10.66;;;;;;;19.24;58.02;100172.07;;;;-51
2019/07/18 05:26:01;;;;;;;12.53;10.65;;;;;;;19.29;57.89;100173.28;;;;-49
2019/07/18 05:29:01;;;;;;;13.32;10.19;;;;;;;19.30;58.04;100172.82;;;;-51
2019/07/18 05:32:01;;;;;;;13.41;11.22;;;;;;;19.30;58.04;100176.73;;;;-53
2019/07/18 05:35:01;;;;;;;23.95;10.99;;;;;;;19.35;58.51;100184.52;;;;-51
2019/07/18 05:38:01;;;;;;;12.04;10.49;;;;;;;19.39;58.36;100184.47;;;;-54
2019/07/18 05:41:01;;;;;;;12.37;11.07;;;;;;;19.42;58.19;100187.88;;;;-52
2019/07/18 05:44:01;;;;;;;18.97;11.18;;;;;;;19.51;58.19;100191.55;;;;-47
2019/07/18 05:47:01;;;;;;;12.37;10.65;;;;;;;19.57;58.01;100190.78;;;;-52
2019/07/18 05:50:01;;;;;;;12.97;11.01;;;;;;;19.59;58.07;100196.56;;;;-58
2019/07/18 05:53:01;;;;;;;11.98;10.55;;;;;;;19.60;58.23;100192.58;;;;-58
2019/07/18 05:56:02;;;;;;;12.15;10.91;;;;;;;19.61;58.16;100197.75;;;;-47
2019/07/18 05:59:01;;;;;;;12.07;10.73;;;;;;;19.64;57.97;100195.42;;;;-60
2019/07/18 06:02:01;;;;;;;12.09;10.58;;;;;;;19.67;58.05;100197.21;;;;-62
2019/07/18 06:05:01;;;;;;;12.18;10.43;;;;;;;19.71;57.94;100197.14;;;;-49
2019/07/18 06:08:01;;;;;;;11.80;10.52;;;;;;;19.73;57.83;100198.35;;;;-50
2019/07/18 06:11:01;;;;;;;11.45;10.31;;;;;;;19.75;57.77;100196.70;;;;-52
2019/07/18 06:14:01;;;;;;;10.91;9.75;;;;;;;19.76;57.87;100194.05;;;;-52
2019/07/18 06:17:09;;;;;;;11.25;10.09;;;;;;;19.76;57.78;100194.79;;;;-63
2019/07/18 06:20:01;;;;;;;10.87;9.77;;;;;;;19.81;57.59;100194.64;;;;-53
2019/07/18 06:23:01;;;;;;;10.99;9.89;;;;;;;19.86;57.46;100195.84;;;;-53
2019/07/18 06:26:01;;;;;;;11.20;9.84;;;;;;;19.93;57.12;100199.06;;;;-48
2019/07/18 06:29:01;;;;;;;10.84;9.83;;;;;;;19.95;56.96;100200.16;;;;-50
2019/07/18 06:32:01;;;;;;;12.41;10.41;;;;;;;19.90;56.98;100197.07;;;;-53
2019/07/18 06:35:01;;;;;;;11.07;9.97;;;;;;;19.96;57.03;100201.16;;;;-52
2019/07/18 06:38:01;;;;;;;11.75;10.55;;;;;;;19.97;56.91;100197.61;;;;-51
2019/07/18 06:41:01;;;;;;;10.85;9.74;;;;;;;20.04;56.82;100204.28;;;;-62
2019/07/18 06:44:01;;;;;;;11.27;10.15;;;;;;;20.09;56.84;100208.62;;;;-47
2019/07/18 06:47:01;;;;;;;10.85;9.45;;;;;;;20.13;56.58;100210.80;;;;-57
2019/07/18 06:50:01;;;;;;;12.79;10.16;;;;;;;20.15;56.86;100213.38;;;;-59
2019/07/18 06:53:01;;;;;;;11.58;10.17;;;;;;;20.16;56.84;100213.82;;;;-51
2019/07/18 06:56:01;;;;;;;10.57;9.28;;;;;;;20.22;56.59;100214.72;;;;-51
2019/07/18 06:59:01;;;;;;;12.20;9.08;;;;;;;20.28;56.36;100214.67;;;;-51
2019/07/18 07:02:01;;;;;;;14.19;9.51;;;;;;;20.31;56.08;100217.34;;;;-51
2019/07/18 07:05:01;;;;;;;10.79;9.22;;;;;;;20.34;56.09;100225.39;;;;-53
2019/07/18 07:08:01;;;;;;;11.43;8.99;;;;;;;20.36;55.98;100220.94;;;;-53
2019/07/18 07:11:01;;;;;;;9.88;8.67;;;;;;;20.37;55.95;100216.39;;;;-53
2019/07/18 07:14:01;;;;;;;9.55;8.59;;;;;;;20.38;55.90;100219.28;;;;-53
2019/07/18 07:17:01;;;;;;;10.08;8.20;;;;;;;20.40;55.79;100220.83;;;;-53
2019/07/18 07:20:01;;;;;;;10.71;8.76;;;;;;;20.42;55.76;100222.50;;;;-53
2019/07/18 07:23:01;;;;;;;9.15;8.27;;;;;;;20.43;55.71;100222.71;;;;-53
2019/07/18 07:26:01;;;;;;;8.97;8.07;;;;;;;20.43;55.59;100231.27;;;;-52
2019/07/18 07:29:01;;;;;;;9.10;8.20;;;;;;;20.44;55.54;100229.63;;;;-53
2019/07/18 07:32:01;;;;;;;9.05;8.01;;;;;;;20.45;55.57;100231.00;;;;-53
2019/07/18 07:35:01;;;;;;;9.09;8.20;;;;;;;20.46;55.45;100233.39;;;;-52
2019/07/18 07:38:01;;;;;;;9.69;8.51;;;;;;;20.47;55.42;100237.22;;;;-53
2019/07/18 07:41:01;;;;;;;8.92;8.02;;;;;;;20.48;55.37;100238.73;;;;-53
2019/07/18 07:44:01;;;;;;;8.39;7.55;;;;;;;20.48;55.35;100234.06;;;;-52
2019/07/18 07:47:01;;;;;;;9.13;7.74;;;;;;;20.49;55.33;100238.80;;;;-53
2019/07/18 07:50:01;;;;;;;8.61;7.72;;;;;;;20.50;55.28;100235.15;;;;-53
2019/07/18 07:53:01;;;;;;;9.88;7.54;;;;;;;20.51;55.23;100235.35;;;;-53
2019/07/18 07:56:01;;;;;;;8.32;7.53;;;;;;;20.52;55.20;100230.32;;;;-52
2019/07/18 07:59:01;;;;;;;8.33;7.56;;;;;;;20.52;55.18;100232.84;;;;-53
2019/07/18 08:02:01;;;;;;;8.59;7.69;;;;;;;20.52;55.17;100232.77;;;;-53
2019/07/18 08:05:01;;;;;;;8.33;7.53;;;;;;;20.53;55.11;100225.56;;;;-52
2019/07/18 08:08:01;;;;;;;8.39;7.59;;;;;;;20.54;55.11;100226.13;;;;-53
2019/07/18 08:11:01;;;;;;;8.49;7.69;;;;;;;20.55;55.08;100231.27;;;;-52
2019/07/18 08:14:01;;;;;;;7.74;7.05;;;;;;;20.55;55.07;100235.56;;;;-53
2019/07/18 08:17:01;;;;;;;7.87;7.17;;;;;;;20.55;55.02;100238.25;;;;-53
2019/07/18 08:20:01;;;;;;;8.37;7.57;;;;;;;20.56;54.99;100239.19;;;;-52
2019/07/18 08:23:01;;;;;;;7.97;7.19;;;;;;;20.57;55.00;100241.74;;;;-53
2019/07/18 08:26:01;;;;;;;7.93;7.20;;;;;;;20.57;55.04;100243.32;;;;-53
2019/07/18 08:29:01;;;;;;;8.07;7.37;;;;;;;20.58;54.97;100247.92;;;;-53
2019/07/18 08:32:01;;;;;;;7.67;6.97;;;;;;;20.58;54.94;100248.26;;;;-53
2019/07/18 08:35:01;;;;;;;7.39;6.73;;;;;;;20.58;54.94;100243.97;;;;-63
2019/07/18 08:38:01;;;;;;;8.19;6.60;;;;;;;20.62;54.89;100245.95;;;;-59
2019/07/18 08:41:01;;;;;;;10.36;7.37;;;;;;;20.66;55.10;100243.81;;;;-65
2019/07/18 08:44:01;;;;;;;9.74;7.51;;;;;;;20.71;54.98;100247.28;;;;-48
2019/07/18 08:47:01;;;;;;;11.80;7.24;;;;;;;20.74;55.27;100242.26;;;;-49
2019/07/18 08:50:01;;;;;;;15.77;6.99;;;;;;;20.75;55.28;100238.60;;;;-48
2019/07/18 08:53:01;;;;;;;8.29;6.76;;;;;;;20.78;55.25;100235.02;;;;-49
2019/07/18 08:56:01;;;;;;;7.80;6.77;;;;;;;20.81;55.23;100233.95;;;;-45
2019/07/18 08:59:01;;;;;;;8.15;6.69;;;;;;;20.82;55.07;100231.10;;;;-47
2019/07/18 09:02:01;;;;;;;9.51;6.75;;;;;;;20.84;55.12;100229.32;;;;-47
2019/07/18 09:05:02;;;;;;;7.51;6.72;;;;;;;20.87;55.21;100233.52;;;;-47
2019/07/18 09:08:01;;;;;;;7.43;6.49;;;;;;;20.89;55.16;100235.34;;;;-60
2019/07/18 09:11:01;;;;;;;7.48;6.52;;;;;;;20.93;55.17;100244.11;;;;-60
2019/07/18 09:14:01;;;;;;;8.74;6.58;;;;;;;20.93;55.02;100235.81;;;;-60
2019/07/18 09:17:01;;;;;;;6.95;5.78;;;;;;;20.96;54.96;100235.75;;;;-64
2019/07/18 09:20:01;;;;;;;8.54;6.22;;;;;;;20.96;54.92;100232.39;;;;-59
2019/07/18 09:23:01;;;;;;;8.05;6.29;;;;;;;20.98;54.99;100228.27;;;;-58
2019/07/18 09:26:01;;;;;;;7.47;6.47;;;;;;;20.99;54.94;100227.87;;;;-60
2019/07/18 09:29:01;;;;;;;8.17;6.34;;;;;;;21.00;54.88;100225.82;;;;-56
2019/07/18 09:32:01;;;;;;;7.01;6.31;;;;;;;21.02;54.92;100224.38;;;;-52
2019/07/18 09:35:01;;;;;;;8.91;6.19;;;;;;;21.03;54.88;100222.63;;;;-53
2019/07/18 09:38:01;;;;;;;9.62;6.33;;;;;;;21.05;55.04;100214.88;;;;-51
2019/07/18 09:41:01;;;;;;;12.05;6.43;;;;;;;21.07;55.03;100215.41;;;;-53
2019/07/18 09:44:01;;;;;;;7.24;6.26;;;;;;;21.09;55.03;100215.66;;;;-60
2019/07/18 09:47:01;;;;;;;12.07;6.21;;;;;;;21.12;55.04;100218.14;;;;-57
2019/07/18 09:50:00;;;;;;;12.62;6.15;;;;;;;21.12;55.31;100214.64;;;;-58
2019/07/18 09:53:01;;;;;;;11.89;6.17;;;;;;;21.14;55.09;100220.16;;;;-59
2019/07/18 09:56:01;;;;;;;11.01;6.38;;;;;;;21.16;55.02;100216.42;;;;-60
2019/07/18 09:59:01;;;;;;;14.23;6.20;;;;;;;21.16;54.81;100215.42;;;;-62
2019/07/18 10:02:01;;;;;;;10.96;5.99;;;;;;;21.16;54.92;100217.70;;;;-61
2019/07/18 10:05:01;;;;;;;7.93;5.76;;;;;;;21.16;54.99;100212.42;;;;-60
2019/07/18 10:08:01;;;;;;;7.15;5.89;;;;;;;21.15;54.97;100215.98;;;;-59
2019/07/18 10:11:01;;;;;;;9.33;6.12;;;;;;;21.16;54.93;100218.14;;;;-59
2019/07/18 10:14:00;;;;;;;13.55;6.06;;;;;;;21.17;54.86;100216.90;;;;-57
2019/07/18 10:17:01;;;;;;;9.65;5.95;;;;;;;21.19;54.83;100217.03;;;;-56
2019/07/18 10:20:01;;;;;;;9.26;5.83;;;;;;;21.20;54.80;100214.55;;;;-56
2019/07/18 10:23:01;;;;;;;6.99;5.51;;;;;;;21.21;54.61;100211.55;;;;-60
2019/07/18 10:26:01;;;;;;;8.82;6.02;;;;;;;21.19;54.77;100214.52;;;;-59
2019/07/18 10:29:00;;;;;;;7.96;5.57;;;;;;;21.20;54.71;100219.08;;;;-59
2019/07/18 10:32:01;;;;;;;9.77;5.83;;;;;;;21.19;54.77;100214.95;;;;-61
2019/07/18 10:35:01;;;;;;;9.11;5.69;;;;;;;21.19;54.59;100216.70;;;;-59
2019/07/18 10:38:00;;;;;;;10.25;5.33;;;;;;;21.20;54.72;100215.05;;;;-60
2019/07/18 10:41:01;;;;;;;11.02;5.43;;;;;;;21.20;54.70;100212.03;;;;-60
2019/07/18 10:44:01;;;;;;;9.99;5.70;;;;;;;21.20;54.65;100212.19;;;;-60
2019/07/18 10:47:01;;;;;;;6.27;5.39;;;;;;;21.20;54.58;100206.92;;;;-59
2019/07/18 10:50:01;;;;;;;10.98;5.91;;;;;;;21.20;54.63;100203.56;;;;-57
2019/07/18 10:53:00;;;;;;;8.89;6.01;;;;;;;21.19;54.53;100205.04;;;;-60
2019/07/18 10:56:01;;;;;;;8.26;5.69;;;;;;;21.20;54.56;100205.31;;;;-57
2019/07/18 10:59:00;;;;;;;7.53;5.56;;;;;;;21.20;54.55;100205.08;;;;-57
2019/07/18 11:02:00;;;;;;;8.23;5.39;;;;;;;21.19;54.51;100203.19;;;;-58
2019/07/18 11:05:00;;;;;;;8.97;5.33;;;;;;;21.20;54.44;100196.07;;;;-57
2019/07/18 11:08:01;;;;;;;7.24;5.43;;;;;;;21.20;54.45;100191.70;;;;-58
2019/07/18 11:11:01;;;;;;;5.91;5.31;;;;;;;21.20;54.40;100191.47;;;;-53
2019/07/18 11:14:00;;;;;;;7.91;5.33;;;;;;;21.21;54.36;100192.34;;;;-52
2019/07/18 11:17:00;;;;;;;6.01;5.35;;;;;;;21.21;54.34;100196.20;;;;-53
2019/07/18 11:20:00;;;;;;;6.52;5.35;;;;;;;21.21;54.31;100193.35;;;;-51
2019/07/18 11:23:00;;;;;;;5.99;5.18;;;;;;;21.21;54.29;100183.51;;;;-51
2019/07/18 11:26:00;;;;;;;6.13;5.51;;;;;;;21.21;54.29;100178.23;;;;-52
2019/07/18 11:29:01;;;;;;;7.99;5.29;;;;;;;21.21;54.23;100172.92;;;;-52
2019/07/18 11:32:01;;;;;;;7.66;5.17;;;;;;;21.21;54.27;100168.66;;;;-46
2019/07/18 11:35:01;;;;;;;7.35;5.35;;;;;;;21.20;54.24;100162.58;;;;-51
2019/07/18 11:38:00;;;;;;;7.81;5.55;;;;;;;21.21;54.23;100161.00;;;;-52
2019/07/18 11:41:00;;;;;;;15.61;5.75;;;;;;;21.20;54.30;100168.63;;;;-53
2019/07/18 11:44:01;;;;;;;7.13;5.71;;;;;;;21.21;54.26;100164.36;;;;-50
2019/07/18 11:47:00;;;;;;;9.02;5.17;;;;;;;21.24;54.27;100165.13;;;;-51
2019/07/18 11:50:00;;;;;;;8.43;5.41;;;;;;;21.27;54.31;100161.37;;;;-51
2019/07/18 11:53:00;;;;;;;8.13;5.70;;;;;;;21.25;54.24;100160.97;;;;-49
2019/07/18 11:56:00;;;;;;;7.31;5.45;;;;;;;21.26;54.32;100156.56;;;;-52
2019/07/18 11:59:01;;;;;;;8.47;5.90;;;;;;;21.25;54.32;100156.03;;;;-52
2019/07/18 12:02:00;;;;;;;8.14;5.69;;;;;;;21.26;54.28;100149.75;;;;-52
2019/07/18 12:05:00;;;;;;;6.84;5.46;;;;;;;21.26;54.21;100150.92;;;;-52
2019/07/18 12:08:01;;;;;;;6.85;5.81;;;;;;;21.27;54.23;100151.12;;;;-54
2019/07/18 12:11:00;;;;;;;9.73;6.07;;;;;;;21.27;54.15;100154.81;;;;-54
2019/07/18 12:14:00;;;;;;;7.67;6.17;;;;;;;21.27;54.17;100155.83;;;;-60
2019/07/18 12:17:00;;;;;;;6.49;5.63;;;;;;;21.26;54.24;100154.62;;;;-51
2019/07/18 12:20:01;;;;;;;8.81;5.97;;;;;;;21.27;54.18;100154.65;;;;-51
2019/07/18 12:23:01;;;;;;;7.86;5.85;;;;;;;21.26;54.15;100154.72;;;;-51
2019/07/18 12:26:00;;;;;;;8.21;6.03;;;;;;;21.27;54.15;100151.19;;;;-51
2019/07/18 12:29:01;;;;;;;10.30;6.11;;;;;;;21.27;54.13;100144.07;;;;-51
2019/07/18 12:32:00;;;;;;;9.07;6.03;;;;;;;21.27;54.13;100147.16;;;;-51
2019/07/18 12:35:01;;;;;;;9.60;6.02;;;;;;;21.27;54.13;100138.26;;;;-51
2019/07/18 12:38:00;;;;;;;9.39;6.10;;;;;;;21.26;54.10;100147.16;;;;-52
2019/07/18 12:41:00;;;;;;;6.49;5.57;;;;;;;21.27;54.13;100139.53;;;;-52
2019/07/18 12:44:00;;;;;;;9.97;5.94;;;;;;;21.28;54.05;100143.94;;;;-51
2019/07/18 12:47:00;;;;;;;12.01;6.19;;;;;;;21.27;54.04;100136.84;;;;-51
2019/07/18 12:50:00;;;;;;;7.08;5.57;;;;;;;21.28;54.02;100141.24;;;;-63
2019/07/18 12:53:00;;;;;;;9.50;5.65;;;;;;;21.28;54.01;100143.49;;;;-63
2019/07/18 12:56:00;;;;;;;9.38;5.87;;;;;;;21.28;53.97;100138.39;;;;-61
2019/07/18 12:59:00;;;;;;;7.43;5.83;;;;;;;21.28;53.96;100135.30;;;;-61
2019/07/18 13:02:01;;;;;;;9.25;5.88;;;;;;;21.28;53.97;100129.82;;;;-61
2019/07/18 13:05:00;;;;;;;8.35;5.79;;;;;;;21.28;53.98;100124.95;;;;-62
2019/07/18 13:08:00;;;;;;;7.03;5.59;;;;;;;21.28;53.94;100120.59;;;;-62
2019/07/18 13:11:00;;;;;;;6.71;5.36;;;;;;;21.28;53.92;100120.52;;;;-63
2019/07/18 13:14:01;;;;;;;6.37;5.41;;;;;;;21.28;53.96;100123.88;;;;-63
2019/07/18 13:17:01;;;;;;;8.12;5.48;;;;;;;21.29;53.95;100125.89;;;;-47
2019/07/18 13:20:01;;;;;;;6.31;5.45;;;;;;;21.28;53.89;100123.27;;;;-47
2019/07/18 13:23:01;;;;;;;6.97;5.61;;;;;;;21.28;53.94;100123.11;;;;-48
2019/07/18 13:26:00;;;;;;;7.11;5.61;;;;;;;21.29;53.98;100128.91;;;;-47
2019/07/18 13:29:00;;;;;;;7.27;5.59;;;;;;;21.30;53.93;100118.13;;;;-47
2019/07/18 13:32:01;;;;;;;13.16;5.85;;;;;;;21.33;54.12;100121.18;;;;-45
2019/07/18 13:35:00;;;;;;;7.07;5.65;;;;;;;21.37;54.10;100114.31;;;;-45
2019/07/18 13:38:00;;;;;;;8.35;5.71;;;;;;;21.40;54.26;100105.07;;;;-46
2019/07/18 13:41:00;;;;;;;8.78;5.63;;;;;;;21.40;54.26;100105.61;;;;-53
2019/07/18 13:44:00;;;;;;;13.34;5.63;;;;;;;21.43;54.41;100099.62;;;;-60
2019/07/18 13:47:00;;;;;;;9.89;5.32;;;;;;;21.45;54.43;100101.63;;;;-61
2019/07/18 13:50:00;;;;;;;8.82;5.85;;;;;;;21.47;54.44;100101.52;;;;-59
2019/07/18 13:53:00;;;;;;;8.38;5.46;;;;;;;21.48;54.45;100098.03;;;;-56
2019/07/18 13:56:01;;;;;;;12.52;5.75;;;;;;;21.50;54.32;100098.59;;;;-52
2019/07/18 13:59:01;;;;;;;10.54;5.83;;;;;;;21.52;54.56;100092.56;;;;-47
2019/07/18 14:02:00;;;;;;;8.83;5.60;;;;;;;21.53;54.61;100087.05;;;;-59
2019/07/18 14:05:00;;;;;;;15.23;5.87;;;;;;;21.54;54.56;100081.91;;;;-53
2019/07/18 14:08:00;;;;;;;10.80;5.61;;;;;;;21.56;54.58;100087.65;;;;-62
2019/07/18 14:11:00;;;;;;;8.88;5.73;;;;;;;21.57;54.65;100084.75;;;;-52
2019/07/18 14:14:00;;;;;;;10.41;5.87;;;;;;;21.58;54.45;100088.28;;;;-54
2019/07/18 14:17:01;;;;;;;14.20;6.11;;;;;;;21.60;54.54;100078.46;;;;-50
2019/07/18 14:20:00;;;;;;;10.82;5.91;;;;;;;21.61;54.50;100084.30;;;;-49
2019/07/18 14:23:01;;;;;;;8.39;5.99;;;;;;;21.61;54.58;100084.23;;;;-50
2019/07/18 14:26:00;;;;;;;12.04;5.57;;;;;;;21.62;54.66;100080.41;;;;-65
2019/07/18 14:29:00;;;;;;;10.02;5.52;;;;;;;21.60;54.55;100072.38;;;;-53
2019/07/18 14:32:00;;;;;;;9.59;5.43;;;;;;;21.60;54.56;100077.39;;;;-65
2019/07/18 14:35:04;;;;;;;9.65;5.74;;;;;;;21.60;54.51;100075.09;;;;-65
2019/07/18 14:38:00;;;;;;;12.75;5.81;;;;;;;21.59;54.50;100071.88;;;;-64
2019/07/18 14:41:00;;;;;;;11.99;5.34;;;;;;;21.58;54.45;100070.30;;;;-64
2019/07/18 14:44:00;;;;;;;7.61;5.29;;;;;;;21.58;54.34;100073.93;;;;-63
2019/07/18 14:47:00;;;;;;;7.66;5.65;;;;;;;21.57;54.35;100077.30;;;;-63
2019/07/18 14:50:00;;;;;;;9.96;5.31;;;;;;;21.57;54.25;100065.66;;;;-64
2019/07/18 14:53:01;;;;;;;9.31;5.47;;;;;;;21.56;54.23;100062.20;;;;-63
2019/07/18 14:56:01;;;;;;;7.44;5.13;;;;;;;21.56;54.20;100061.37;;;;-53
2019/07/18 14:59:01;;;;;;;7.37;5.07;;;;;;;21.55;54.22;100057.73;;;;-50
2019/07/18 15:02:00;;;;;;;7.40;5.34;;;;;;;21.55;54.16;100054.28;;;;-63
2019/07/18 15:05:00;;;;;;;7.41;5.38;;;;;;;21.53;54.14;100055.23;;;;-63
2019/07/18 15:08:00;;;;;;;6.87;5.30;;;;;;;21.54;54.13;100048.71;;;;-64
2019/07/18 15:11:01;;;;;;;7.57;5.05;;;;;;;21.55;54.10;100049.07;;;;-63
2019/07/18 15:14:00;;;;;;;8.25;5.40;;;;;;;21.53;54.12;100053.48;;;;-65
2019/07/18 15:17:00;;;;;;;6.93;4.98;;;;;;;21.53;54.10;100046.83;;;;-65
2019/07/18 15:20:00;;;;;;;10.39;4.87;;;;;;;21.53;54.04;100052.11;;;;-63
2019/07/18 15:23:00;;;;;;;6.19;4.91;;;;;;;21.53;54.04;100050.42;;;;-63
2019/07/18 15:26:00;;;;;;;8.46;4.87;;;;;;;21.52;54.00;100042.36;;;;-53
2019/07/18 15:29:00;;;;;;;7.59;5.02;;;;;;;21.52;53.99;100045.05;;;;-52
2019/07/18 15:32:00;;;;;;;6.91;5.09;;;;;;;21.51;54.02;100045.26;;;;-53
2019/07/18 15:35:00;;;;;;;7.51;5.28;;;;;;;21.52;53.99;100045.62;;;;-53
2019/07/18 15:38:01;;;;;;;6.47;4.74;;;;;;;21.52;53.97;100048.21;;;;-50
2019/07/18 15:41:01;;;;;;;6.33;5.06;;;;;;;21.52;53.95;100048.72;;;;-50
2019/07/18 15:44:00;;;;;;;6.23;5.02;;;;;;;21.51;53.95;100043.84;;;;-55
2019/07/18 15:47:01;;;;;;;8.58;4.92;;;;;;;21.51;54.03;100041.63;;;;-51
2019/07/18 15:50:00;;;;;;;6.70;4.75;;;;;;;21.53;54.00;100040.34;;;;-53
2019/07/18 15:53:00;;;;;;;7.39;5.05;;;;;;;21.57;54.12;100039.63;;;;-53
2019/07/18 15:56:00;;;;;;;6.38;4.75;;;;;;;21.58;54.16;100034.10;;;;-52
2019/07/18 15:59:00;;;;;;;7.42;4.62;;;;;;;21.60;54.19;100029.89;;;;-52
2019/07/18 16:02:00;;;;;;;8.67;4.94;;;;;;;21.61;54.36;100027.50;;;;-52
2019/07/18 16:05:00;;;;;;;10.67;4.87;;;;;;;21.63;54.29;100026.79;;;;-56
2019/07/18 16:08:00;;;;;;;8.54;4.73;;;;;;;21.64;54.52;100027.63;;;;-52
2019/07/18 16:11:00;;;;;;;5.83;4.67;;;;;;;21.67;54.48;100030.94;;;;-58
2019/07/18 16:14:00;;;;;;;8.75;4.88;;;;;;;21.69;54.55;100033.95;;;;-52
2019/07/18 16:17:00;;;;;;;8.54;4.65;;;;;;;21.70;54.57;100027.83;;;;-52
2019/07/18 16:20:00;;;;;;;5.97;4.68;;;;;;;21.71;54.39;100031.73;;;;-51
2019/07/18 16:23:00;;;;;;;7.65;4.68;;;;;;;21.70;54.45;100029.71;;;;-48
2019/07/18 16:26:00;;;;;;;12.43;4.51;;;;;;;21.74;54.54;100026.36;;;;-64
2019/07/18 16:29:00;;;;;;;13.27;4.92;;;;;;;21.72;54.45;100026.07;;;;-53
2019/07/18 16:32:00;;;;;;;10.07;4.49;;;;;;;21.74;54.44;100026.70;;;;-57
2019/07/18 16:35:00;;;;;;;14.43;4.90;;;;;;;21.76;54.50;100025.65;;;;-58
2019/07/18 16:38:00;;;;;;;9.81;4.59;;;;;;;21.76;54.52;100025.24;;;;-58